createdAt,value
2023-05-12T00:00:05.335Z,19.09
2023-05-12T00:02:34.457Z,19.06
2023-05-12T00:05:02.825Z,18.80
2023-05-12T00:07:31.251Z,18.72
2023-05-12T00:09:59.770Z,18.60
2023-05-12T00:12:28.172Z,18.84
2023-05-12T00:14:56.946Z,18.90
2023-05-12T00:17:28.053Z,18.80
2023-05-12T00:19:56.556Z,18.78
2023-05-12T00:22:26.870Z,18.78
2023-05-12T00:24:55.162Z,18.63
2023-05-12T00:27:23.731Z,18.71
2023-05-12T00:29:52.005Z,18.81
2023-05-12T00:32:21.285Z,18.83
2023-05-12T00:34:51.718Z,18.84
2023-05-12T00:37:20.132Z,18.82
2023-05-12T00:39:48.768Z,18.55
2023-05-12T00:42:17.281Z,18.72
2023-05-12T00:44:45.674Z,18.30
2023-05-12T00:47:14.108Z,18.15
2023-05-12T00:49:42.920Z,18.11
2023-05-12T00:52:12.817Z,17.86
2023-05-12T00:54:43.729Z,17.69
2023-05-12T00:57:12.562Z,17.95
2023-05-12T00:59:40.873Z,17.86
2023-05-12T01:02:09.245Z,17.86
2023-05-12T01:04:43.144Z,17.84
2023-05-12T01:07:19.519Z,17.64
2023-05-12T01:09:48.037Z,17.67
2023-05-12T01:12:16.343Z,17.68
2023-05-12T01:14:44.518Z,17.81
2023-05-12T01:17:15.192Z,17.67
2023-05-12T01:19:49.453Z,17.51
2023-05-12T01:22:20.166Z,17.71
2023-05-12T01:24:52.620Z,17.82
2023-05-12T01:27:25.500Z,17.78
2023-05-12T01:29:54.517Z,17.81
2023-05-12T01:32:24.134Z,17.86
2023-05-12T01:34:53.869Z,17.86
2023-05-12T01:37:22.454Z,17.85
2023-05-12T01:39:51.086Z,17.79
2023-05-12T01:42:19.253Z,17.88
2023-05-12T01:44:49.344Z,17.80
2023-05-12T01:47:17.609Z,17.86
2023-05-12T01:49:46.379Z,17.84
2023-05-12T01:52:14.664Z,17.79
2023-05-12T01:54:45.568Z,17.85
2023-05-12T01:57:16.511Z,17.89
2023-05-12T01:59:44.852Z,17.71
2023-05-12T02:02:14.510Z,17.80
2023-05-12T02:04:43.362Z,17.87
2023-05-12T02:07:11.826Z,17.69
2023-05-12T02:09:39.987Z,17.57
2023-05-12T02:12:09.421Z,17.48
2023-05-12T02:14:37.696Z,17.34
2023-05-12T02:17:05.876Z,17.40
2023-05-12T02:19:35.501Z,17.43
2023-05-12T02:22:05.769Z,17.49
2023-05-12T02:24:34.099Z,17.52
2023-05-12T02:27:02.914Z,17.50
2023-05-12T02:29:31.755Z,17.56
2023-05-12T02:31:59.988Z,17.54
2023-05-12T02:34:28.441Z,17.54
2023-05-12T02:36:58.619Z,17.09
2023-05-12T02:39:26.859Z,17.43
2023-05-12T02:41:55.310Z,17.42
2023-05-12T02:44:25.906Z,17.32
2023-05-12T02:46:54.449Z,17.06
2023-05-12T02:49:22.859Z,17.19
2023-05-12T02:51:51.501Z,17.13
2023-05-12T02:54:21.588Z,16.99
2023-05-12T02:56:49.950Z,16.93
2023-05-12T02:59:18.256Z,16.87
2023-05-12T03:01:46.576Z,16.74
2023-05-12T03:04:15.241Z,16.73
2023-05-12T03:06:43.471Z,16.59
2023-05-12T03:09:11.851Z,16.64
2023-05-12T03:11:41.834Z,16.54
2023-05-12T03:14:10.129Z,16.47
2023-05-12T03:16:40.582Z,16.31
2023-05-12T03:19:12.144Z,16.48
2023-05-12T03:21:40.477Z,16.54
2023-05-12T03:24:11.629Z,16.54
2023-05-12T03:26:41.655Z,16.41
2023-05-12T03:29:09.811Z,16.32
2023-05-12T03:31:38.402Z,16.35
2023-05-12T03:34:07.084Z,16.29
2023-05-12T03:36:35.332Z,16.07
2023-05-12T03:39:03.968Z,16.27
2023-05-12T03:41:34.742Z,16.23
2023-05-12T03:44:05.743Z,16.21
2023-05-12T03:46:34.219Z,16.20
2023-05-12T03:49:02.837Z,16.40
2023-05-12T03:51:32.086Z,16.22
2023-05-12T03:54:01.082Z,16.16
2023-05-12T03:56:29.762Z,16.19
2023-05-12T03:58:58.785Z,16.23
2023-05-12T04:01:28.838Z,16.22
2023-05-12T04:03:57.643Z,16.17
2023-05-12T04:06:26.195Z,16.21
2023-05-12T04:08:54.522Z,16.34
2023-05-12T04:11:23.702Z,16.42
2023-05-12T04:13:52.228Z,16.41
2023-05-12T04:16:21.084Z,16.49
2023-05-12T04:18:51.303Z,16.55
2023-05-12T04:21:19.808Z,16.43
2023-05-12T04:23:48.221Z,16.27
2023-05-12T04:26:16.856Z,16.35
2023-05-12T04:28:45.083Z,16.36
2023-05-12T04:31:15.568Z,16.40
2023-05-12T04:33:45.300Z,16.34
2023-05-12T04:36:16.784Z,16.42
2023-05-12T04:38:44.980Z,16.51
2023-05-12T04:41:13.428Z,16.63
2023-05-12T04:46:12.904Z,16.59
2023-05-12T04:48:43.456Z,16.52
2023-05-12T04:51:11.826Z,16.61
2023-05-12T04:53:43.549Z,16.73
2023-05-12T04:56:12.057Z,16.66
2023-05-12T04:58:40.522Z,16.64
2023-05-12T05:01:09.126Z,16.83
2023-05-12T05:03:37.570Z,17.05
2023-05-12T05:06:06.223Z,17.07
2023-05-12T05:08:34.685Z,17.14
2023-05-12T05:11:04.496Z,17.15
2023-05-12T05:13:33.084Z,17.03
2023-05-12T05:16:01.697Z,17.05
2023-05-12T05:18:30.572Z,16.95
2023-05-12T05:20:59.371Z,16.99
2023-05-12T05:23:27.652Z,17.15
2023-05-12T05:25:59.963Z,17.36
2023-05-12T05:28:29.785Z,17.30
2023-05-12T05:30:58.128Z,17.47
2023-05-12T05:33:26.845Z,17.61
2023-05-12T05:35:56.961Z,17.46
2023-05-12T05:38:27.586Z,17.68
2023-05-12T05:40:58.202Z,17.55
2023-05-12T05:43:26.842Z,17.68
2023-05-12T05:45:59.937Z,17.63
2023-05-12T05:48:28.659Z,17.68
2023-05-12T05:50:56.909Z,17.85
2023-05-12T05:53:25.457Z,17.89
2023-05-12T05:55:53.822Z,18.02
2023-05-12T05:58:22.620Z,18.07
2023-05-12T06:00:51.756Z,18.17
2023-05-12T06:03:22.331Z,18.05
2023-05-12T06:05:51.917Z,18.20
2023-05-12T06:08:20.523Z,18.33
2023-05-12T06:10:50.480Z,18.48
2023-05-12T06:13:21.758Z,18.62
2023-05-12T06:15:51.105Z,18.55
2023-05-12T06:18:23.897Z,18.58
2023-05-12T06:20:52.081Z,18.58
2023-05-12T06:23:20.261Z,18.69
2023-05-12T06:25:50.754Z,18.58
2023-05-12T06:28:18.889Z,18.77
2023-05-12T06:30:47.393Z,18.79
2023-05-12T06:33:15.967Z,18.86
2023-05-12T06:35:45.567Z,18.93
2023-05-12T06:38:14.153Z,18.85
2023-05-12T06:40:42.718Z,19.09
2023-05-12T06:43:11.055Z,18.95
2023-05-12T06:45:39.448Z,19.15
2023-05-12T06:48:09.660Z,19.24
2023-05-12T06:50:38.171Z,19.34
2023-05-12T06:53:08.695Z,19.59
2023-05-12T06:55:37.685Z,19.60
2023-05-12T06:58:05.913Z,19.60
2023-05-12T07:00:34.243Z,19.63
2023-05-12T07:03:06.092Z,19.73
2023-05-12T07:05:34.701Z,19.90
2023-05-12T07:08:08.755Z,20.03
2023-05-12T07:10:38.672Z,20.02
2023-05-12T07:13:07.061Z,20.10
2023-05-12T07:15:36.748Z,20.08
2023-05-12T07:18:05.266Z,20.18
2023-05-12T07:20:33.877Z,19.68
2023-05-12T07:23:05.645Z,19.73
2023-05-12T07:25:36.713Z,19.98
2023-05-12T07:28:05.735Z,20.20
2023-05-12T07:30:34.711Z,20.09
2023-05-12T07:33:03.916Z,20.08
2023-05-12T07:35:34.222Z,20.32
2023-05-12T07:38:03.589Z,20.39
2023-05-12T07:40:33.073Z,20.48
2023-05-12T07:43:07.705Z,20.51
2023-05-12T07:45:36.884Z,20.76
2023-05-12T07:48:05.736Z,21.67
2023-05-12T07:50:34.168Z,22.48
2023-05-12T07:53:06.014Z,22.94
2023-05-12T07:55:35.166Z,23.02
2023-05-12T07:58:07.883Z,23.25
2023-05-12T08:00:36.775Z,23.30
2023-05-12T08:03:11.669Z,23.69
2023-05-12T08:05:40.215Z,24.61
2023-05-12T08:08:09.861Z,24.21
2023-05-12T08:10:38.278Z,24.57
2023-05-12T08:13:08.831Z,24.71
2023-05-12T08:15:37.926Z,24.70
2023-05-12T08:18:10.617Z,24.27
2023-05-12T08:20:40.520Z,24.35
2023-05-12T08:23:09.068Z,24.37
2023-05-12T08:25:42.632Z,24.42
2023-05-12T08:28:13.523Z,24.40
2023-05-12T08:30:44.898Z,24.19
2023-05-12T08:33:15.757Z,24.42
2023-05-12T08:35:45.912Z,25.03
2023-05-12T08:38:14.719Z,25.17
2023-05-12T08:40:49.534Z,25.47
2023-05-12T08:43:26.850Z,24.70
2023-05-12T08:45:58.721Z,24.86
2023-05-12T08:48:30.977Z,24.77
2023-05-12T08:51:03.265Z,25.23
2023-05-12T08:53:35.006Z,25.57
2023-05-12T08:58:46.103Z,25.49
2023-05-12T09:01:18.096Z,24.92
2023-05-12T09:03:47.919Z,25.22
2023-05-12T09:06:17.791Z,25.36
2023-05-12T09:08:48.419Z,24.82
2023-05-12T09:11:19.696Z,24.63
2023-05-12T09:14:07.809Z,25.12
2023-05-12T09:16:43.393Z,25.30
2023-05-12T09:19:20.047Z,25.37
2023-05-12T09:21:50.780Z,24.91
2023-05-12T09:24:19.500Z,24.80
2023-05-12T09:26:51.120Z,24.60
2023-05-12T09:29:31.243Z,24.88
2023-05-12T09:32:03.875Z,24.78
2023-05-12T09:34:36.171Z,23.18
2023-05-12T09:37:07.830Z,23.34
2023-05-12T09:39:38.422Z,22.97
2023-05-12T09:42:15.186Z,23.10
2023-05-12T09:44:49.565Z,22.85
2023-05-12T09:47:24.712Z,23.12
2023-05-12T09:49:55.501Z,23.07
2023-05-12T09:52:24.826Z,23.32
2023-05-12T09:54:54.577Z,23.69
2023-05-12T09:57:27.472Z,24.06
2023-05-12T09:59:58.950Z,24.57
2023-05-12T10:02:30.249Z,24.41
2023-05-12T10:08:05.113Z,24.67
2023-05-12T10:10:35.675Z,25.03
2023-05-12T10:13:04.980Z,25.18
2023-05-12T10:15:38.328Z,25.43
2023-05-12T10:18:07.745Z,25.55
2023-05-12T10:20:42.333Z,25.51
2023-05-12T10:23:13.833Z,25.13
2023-05-12T10:25:46.096Z,25.13
2023-05-12T10:28:17.152Z,25.13
2023-05-12T10:30:49.726Z,24.88
2023-05-12T10:33:19.492Z,24.83
2023-05-12T10:35:49.650Z,25.26
2023-05-12T10:38:20.038Z,25.17
2023-05-12T10:40:58.689Z,24.95
2023-05-12T10:43:29.934Z,24.74
2023-05-12T10:46:21.145Z,24.86
2023-05-12T10:48:57.384Z,25.24
2023-05-12T10:51:29.198Z,25.13
2023-05-12T10:54:02.932Z,25.15
2023-05-12T10:56:33.573Z,25.20
2023-05-12T10:59:19.576Z,25.26
2023-05-12T11:02:03.991Z,25.21
2023-05-12T11:04:43.474Z,25.18
2023-05-12T11:07:15.698Z,25.06
2023-05-12T11:09:57.860Z,25.32
2023-05-12T11:12:33.218Z,25.32
2023-05-12T11:15:11.578Z,25.10
2023-05-12T11:17:42.677Z,24.84
2023-05-12T11:20:12.634Z,24.52
2023-05-12T11:22:43.589Z,24.86
2023-05-12T11:25:13.031Z,24.48
2023-05-12T11:27:48.064Z,24.49
2023-05-12T11:30:28.671Z,24.40
2023-05-12T11:33:11.158Z,24.17
2023-05-12T11:35:39.908Z,24.39
2023-05-12T11:41:26.668Z,24.29
2023-05-12T11:43:55.421Z,24.66
2023-05-12T11:46:27.716Z,24.67
2023-05-12T11:48:58.838Z,24.34
2023-05-12T11:51:28.404Z,24.40
2023-05-12T11:53:57.565Z,24.34
2023-05-12T11:56:26.931Z,24.36
2023-05-12T11:58:59.981Z,24.33
2023-05-12T12:01:28.689Z,24.73
2023-05-12T12:03:59.061Z,24.45
2023-05-12T12:06:27.719Z,25.09
2023-05-12T12:08:57.436Z,25.02
2023-05-12T12:11:28.635Z,25.13
2023-05-12T12:13:57.800Z,25.21
2023-05-12T12:16:26.895Z,24.73
2023-05-12T12:18:55.397Z,24.88
2023-05-12T12:21:26.528Z,24.88
2023-05-12T12:23:54.963Z,25.16
2023-05-12T12:26:23.395Z,24.97
2023-05-12T12:28:51.646Z,23.96
2023-05-12T12:31:20.096Z,23.53
2023-05-12T12:33:48.733Z,23.62
2023-05-12T12:36:16.912Z,24.24
2023-05-12T12:38:47.451Z,23.83
2023-05-12T12:41:15.596Z,23.59
2023-05-12T12:43:44.694Z,23.30
2023-05-12T12:46:13.190Z,23.11
2023-05-12T12:48:41.664Z,22.98
2023-05-12T12:51:10.369Z,22.83
2023-05-12T12:53:39.229Z,22.82
2023-05-12T12:56:09.218Z,22.90
2023-05-12T12:58:37.760Z,22.79
2023-05-12T13:01:06.816Z,22.86
2023-05-12T13:03:35.113Z,22.72
2023-05-12T13:06:03.445Z,22.96
2023-05-12T13:08:32.232Z,22.77
2023-05-12T13:11:01.010Z,22.77
2023-05-12T13:13:31.518Z,22.67
2023-05-12T13:15:59.821Z,22.63
2023-05-12T13:18:27.980Z,22.57
2023-05-12T13:20:56.298Z,22.78
2023-05-12T13:23:25.418Z,22.32
2023-05-12T13:25:53.598Z,22.61
2023-05-12T13:28:21.853Z,22.84
2023-05-12T13:30:53.951Z,22.79
2023-05-12T13:33:22.477Z,22.81
2023-05-12T13:35:50.735Z,22.87
2023-05-12T13:38:20.156Z,22.91
2023-05-12T13:40:48.318Z,23.02
2023-05-12T13:43:17.669Z,23.22
2023-05-12T13:45:46.067Z,23.26
2023-05-12T13:48:16.381Z,23.26
2023-05-12T13:50:44.758Z,23.26
2023-05-12T13:53:13.597Z,23.09
2023-05-12T13:55:41.808Z,23.26
2023-05-12T13:58:10.113Z,23.17
2023-05-12T14:00:38.583Z,23.16
2023-05-12T14:03:10.165Z,23.52
2023-05-12T14:05:40.840Z,23.26
2023-05-12T14:08:09.288Z,22.93
2023-05-12T14:10:37.724Z,23.39
2023-05-12T14:13:08.532Z,23.22
2023-05-12T14:15:48.751Z,23.18
2023-05-12T14:18:18.391Z,23.13
2023-05-12T14:20:48.480Z,23.07
2023-05-12T14:23:16.950Z,23.22
2023-05-12T14:25:47.594Z,23.15
2023-05-12T14:28:15.913Z,23.16
2023-05-12T14:30:45.655Z,23.41
2023-05-12T14:33:14.247Z,23.52
2023-05-12T14:35:44.740Z,23.72
2023-05-12T14:38:17.972Z,23.36
2023-05-12T14:40:47.512Z,22.98
2023-05-12T14:43:15.733Z,22.85
2023-05-12T14:45:44.745Z,23.06
2023-05-12T14:48:13.117Z,23.26
2023-05-12T14:50:44.042Z,23.53
2023-05-12T14:53:12.384Z,22.90
2023-05-12T14:55:42.232Z,22.95
2023-05-12T14:58:10.524Z,23.33
2023-05-12T15:00:41.097Z,23.25
2023-05-12T15:03:09.424Z,23.38
2023-05-12T15:05:56.874Z,23.45
2023-05-12T15:08:28.181Z,23.25
2023-05-12T15:11:03.662Z,23.09
2023-05-12T15:13:35.068Z,23.15
2023-05-12T15:16:04.934Z,23.13
2023-05-12T15:18:33.295Z,23.33
2023-05-12T15:21:01.596Z,23.84
2023-05-12T15:23:30.344Z,23.92
2023-05-12T15:26:10.550Z,23.67
2023-05-12T15:28:44.071Z,23.86
2023-05-12T15:31:12.477Z,24.20
2023-05-12T15:33:51.583Z,24.07
2023-05-12T15:36:19.971Z,24.15
2023-05-12T15:38:48.296Z,24.23
2023-05-12T15:41:18.007Z,24.44
2023-05-12T15:43:46.378Z,23.90
2023-05-12T15:46:14.594Z,23.84
2023-05-12T15:48:45.483Z,24.09
2023-05-12T15:51:14.255Z,24.03
2023-05-12T15:53:42.472Z,23.94
2023-05-12T15:56:13.781Z,23.93
2023-05-12T15:58:44.037Z,23.77
2023-05-12T16:01:14.044Z,23.52
2023-05-12T16:03:42.829Z,23.56
2023-05-12T16:06:12.671Z,23.35
2023-05-12T16:08:42.825Z,23.23
2023-05-12T16:11:13.461Z,23.42
2023-05-12T16:13:43.616Z,23.47
2023-05-12T16:16:12.347Z,23.41
2023-05-12T16:18:41.584Z,23.31
2023-05-12T16:21:09.898Z,23.29
2023-05-12T16:23:38.450Z,23.19
2023-05-12T16:26:06.898Z,23.13
2023-05-12T16:28:39.104Z,23.23
2023-05-12T16:31:08.870Z,23.26
2023-05-12T16:33:37.661Z,23.03
2023-05-12T16:36:06.951Z,23.07
2023-05-12T16:38:36.892Z,23.14
2023-05-12T16:41:05.325Z,22.95
2023-05-12T16:43:33.896Z,23.10
2023-05-12T16:46:04.253Z,23.10
2023-05-12T16:48:36.989Z,23.00
2023-05-12T16:51:07.024Z,22.95
2023-05-12T16:53:35.683Z,22.95
2023-05-12T16:56:05.994Z,22.90
2023-05-12T16:58:34.556Z,23.04
2023-05-12T17:01:05.931Z,23.04
2023-05-12T17:03:36.330Z,23.06
2023-05-12T17:06:05.217Z,22.90
2023-05-12T17:08:36.219Z,22.98
2023-05-12T17:11:05.803Z,22.88
2023-05-12T17:13:37.269Z,22.80
2023-05-12T17:16:06.208Z,22.79
2023-05-12T17:21:11.560Z,22.74
2023-05-12T17:23:41.140Z,22.89
2023-05-12T17:26:09.327Z,22.95
2023-05-12T17:28:37.751Z,22.88
2023-05-12T17:31:10.491Z,22.72
2023-05-12T17:33:40.321Z,22.62
2023-05-12T17:36:12.953Z,22.75
2023-05-12T17:38:42.792Z,22.67
2023-05-12T17:41:11.420Z,22.44
2023-05-12T17:43:39.811Z,22.57
2023-05-12T17:46:09.261Z,22.57
2023-05-12T17:48:38.825Z,22.46
2023-05-12T17:51:13.639Z,22.29
2023-05-12T17:53:42.163Z,22.28
2023-05-12T17:56:10.710Z,22.40
2023-05-12T17:58:39.443Z,22.47
2023-05-12T18:01:08.266Z,22.40
2023-05-12T18:03:37.096Z,22.31
2023-05-12T18:06:06.333Z,22.23
2023-05-12T18:08:35.925Z,22.28
2023-05-12T18:11:04.106Z,22.13
2023-05-12T18:13:33.152Z,22.18
2023-05-12T18:16:04.134Z,22.29
2023-05-12T18:18:35.736Z,22.01
2023-05-12T18:21:04.209Z,22.23
2023-05-12T18:23:33.088Z,22.26
2023-05-12T18:26:05.250Z,22.21
2023-05-12T18:28:33.448Z,22.14
2023-05-12T18:31:15.151Z,22.28
2023-05-12T18:33:47.232Z,22.38
2023-05-12T18:36:15.921Z,22.23
2023-05-12T18:38:44.132Z,22.16
2023-05-12T18:41:14.172Z,22.19
2023-05-12T18:43:44.544Z,22.20
2023-05-12T18:46:12.953Z,22.16
2023-05-12T18:48:41.629Z,22.15
2023-05-12T18:51:10.827Z,22.21
2023-05-12T18:53:39.316Z,22.13
2023-05-12T18:56:11.230Z,22.25
2023-05-12T18:58:40.985Z,22.22
2023-05-12T19:01:09.814Z,22.16
2023-05-12T19:03:38.084Z,22.12
2023-05-12T19:06:07.474Z,22.09
2023-05-12T19:08:35.731Z,22.17
2023-05-12T19:11:04.589Z,22.08
2023-05-12T19:13:32.882Z,21.97
2023-05-12T19:16:03.218Z,22.09
2023-05-12T19:18:33.574Z,21.96
2023-05-12T19:21:07.229Z,22.00
2023-05-12T19:23:35.590Z,21.89
2023-05-12T19:26:03.965Z,21.77
2023-05-12T19:28:35.239Z,21.72
2023-05-12T19:31:05.554Z,21.56
2023-05-12T19:33:35.346Z,21.84
2023-05-12T19:36:03.849Z,21.80
2023-05-12T19:38:34.786Z,21.78
2023-05-12T19:41:03.660Z,21.69
2023-05-12T19:43:32.215Z,21.51
2023-05-12T19:46:00.955Z,21.57
2023-05-12T19:48:31.540Z,21.51
2023-05-12T19:51:00.184Z,21.50
2023-05-12T19:53:28.462Z,21.41
2023-05-12T19:55:56.905Z,21.18
2023-05-12T19:58:25.295Z,21.04
2023-05-12T20:00:54.119Z,20.84
2023-05-12T20:03:23.396Z,20.58
2023-05-12T20:05:53.383Z,20.42
2023-05-12T20:08:21.550Z,20.47
2023-05-12T20:10:50.445Z,20.36
2023-05-12T20:13:18.667Z,20.19
2023-05-12T20:15:46.898Z,20.15
2023-05-12T20:18:17.031Z,20.08
2023-05-12T20:20:48.460Z,19.99
2023-05-12T20:23:18.305Z,20.04
2023-05-12T20:25:46.786Z,19.83
2023-05-12T20:28:15.033Z,19.82
2023-05-12T20:30:43.740Z,19.78
2023-05-12T20:33:12.042Z,19.72
2023-05-12T20:35:40.207Z,19.72
2023-05-12T20:38:08.932Z,19.65
2023-05-12T20:40:40.530Z,19.59
2023-05-12T20:43:09.446Z,19.28
2023-05-12T20:45:37.861Z,19.41
2023-05-12T20:48:06.801Z,19.47
2023-05-12T20:50:35.099Z,19.40
2023-05-12T20:53:03.443Z,19.36
2023-05-12T20:55:33.831Z,19.10
2023-05-12T20:58:03.473Z,19.02
2023-05-12T21:00:34.766Z,19.10
2023-05-12T21:03:04.477Z,18.94
2023-05-12T21:05:33.218Z,18.91
2023-05-12T21:08:01.457Z,18.89
2023-05-12T21:10:29.907Z,18.66
2023-05-12T21:12:58.761Z,18.78
2023-05-12T21:15:29.076Z,18.73
2023-05-12T21:17:58.312Z,18.71
2023-05-12T21:20:26.868Z,18.79
2023-05-12T21:22:59.034Z,18.81
2023-05-12T21:25:27.432Z,18.80
2023-05-12T21:27:55.558Z,18.85
2023-05-12T21:30:23.848Z,18.79
2023-05-12T21:32:53.703Z,18.54
2023-05-12T21:35:21.904Z,18.53
2023-05-12T21:40:34.856Z,18.30
2023-05-12T21:43:03.980Z,18.61
2023-05-12T21:45:34.940Z,18.55
2023-05-12T21:48:06.181Z,18.41
2023-05-12T21:50:34.354Z,18.41
2023-05-12T21:53:06.165Z,18.36
2023-05-12T21:55:34.611Z,18.47
2023-05-12T21:58:02.868Z,18.52
2023-05-12T22:00:34.098Z,18.34
2023-05-12T22:03:06.181Z,18.39
2023-05-12T22:05:34.491Z,18.30
2023-05-12T22:08:03.049Z,18.31
2023-05-12T22:10:32.136Z,18.19
2023-05-12T22:13:01.544Z,18.24
2023-05-12T22:15:31.896Z,18.09
2023-05-12T22:18:00.472Z,17.88
2023-05-12T22:20:31.102Z,17.61
2023-05-12T22:23:01.924Z,17.71
2023-05-12T22:25:31.034Z,17.77
2023-05-12T22:27:59.229Z,17.77
2023-05-12T22:30:27.659Z,17.70
2023-05-12T22:32:56.542Z,17.75
2023-05-12T22:35:24.721Z,17.73
2023-05-12T22:37:54.323Z,17.68
2023-05-12T22:40:23.280Z,17.76
2023-05-12T22:42:51.785Z,17.53
2023-05-12T22:45:19.937Z,17.58
2023-05-12T22:47:48.358Z,17.37
2023-05-12T22:50:16.722Z,17.39
2023-05-12T22:52:45.137Z,17.44
2023-05-12T22:55:15.218Z,17.44
2023-05-12T22:57:46.348Z,17.48
2023-05-12T23:00:15.746Z,17.32
2023-05-12T23:02:44.401Z,17.40
2023-05-12T23:05:12.922Z,17.34
2023-05-12T23:07:41.466Z,17.25
2023-05-12T23:10:10.736Z,17.17
2023-05-12T23:12:40.493Z,17.51
2023-05-12T23:15:09.954Z,17.41
2023-05-12T23:17:38.533Z,17.47
2023-05-12T23:20:08.167Z,17.39
2023-05-12T23:22:36.965Z,17.19
2023-05-12T23:25:07.893Z,17.29
2023-05-12T23:27:37.253Z,17.26
2023-05-12T23:30:08.433Z,17.18
2023-05-12T23:32:39.599Z,17.11
2023-05-12T23:35:09.631Z,17.14
2023-05-12T23:37:37.757Z,17.09
2023-05-12T23:40:10.487Z,17.05
2023-05-12T23:42:38.704Z,16.95
2023-05-12T23:45:09.729Z,17.09
2023-05-12T23:47:41.683Z,17.05
2023-05-12T23:50:10.541Z,17.05
2023-05-12T23:52:38.877Z,17.13
2023-05-12T23:55:08.460Z,17.12
2023-05-12T23:57:37.104Z,16.99
